Pocahontas, MS (39072)

5:31 AM CST on January 18, 2017 (GMT -0600)
Flora | | Change Station

Elev 292 ft 32.51 °N, 90.25 °W | Updated 0 second ago

Overcast
Overcast
57.6 °F
Feels Like 57.6 °F
N
0.0
Wind Variable Wind from SSW
Gusts 0.0 mph

Today
High -- | Low -- °F
--% Chance of Precip.
Yesterday
High -- | Low -- °F
Precip. -- in
Pressure 30.15 in
Visibility 10.0 miles
Clouds Mostly Cloudy 300 ft
Overcast 700 ft
Dew Point 54 °F
Humidity 87%
Rainfall 0.00 in
Snow Depth Not available.
7:02 AM 5:21 PM
Waning Gibbous, 64% visible
SPECI KHKS 181102Z AUTO 33003KT 10SM BKN003 OVC007 14/13 A3015 RMK AO2 CIG 003V006 T01440133
Pressure 30.15 in
Visibility 10.0 miles
Clouds Mostly Cloudy 300 ft
Overcast 700 ft
Dew Point 54 °F
Humidity 87%
Rainfall 0.00 in
Snow Depth Not available.
7:02 AM 5:21 PM
Waning Gibbous, 64% visible
SPECI KHKS 181102Z AUTO 33003KT 10SM BKN003 OVC007 14/13 A3015 RMK AO2 CIG 003V006 T01440133

Get Your Daily Forecast Email!

Thanks for signing up!

Be on the lookout for a verification email in your inbox.

You'll start receiving the daily forecast at 8 AM.

×

10-Day Weather Forecast

Almanac

Astronomy

Jan. 18, 2017 Rise Set
Actual Time
Civil Twilight
Nautical Twilight
Astronomical Twilight
Moon
Length of Visible Light
Length of Day
Tomorrow will be .
, % of the Moon is Illuminated

Today's Extremes

State Highs State Lows

Community

WunderPhotos

Upload Photos

1,962,540 photos uploaded!

WunderBlog® & News

Nearby

Air Quality

  Air Quality AQ Index Pollutant
Not available.

Snow Depth

Station Depth Elevation

Earthquake Activity

City Distance Mag. Time & Date
Minimum magnitude displayed is 2.5.

Coastal Water Temperatures

Place Temperature

Stations

Nearby Weather Stations

Station Location Temp. Windchill Dew Point Humidity Wind Precip. Elev Updated Type
                   

Watches & Warnings

There are currently no watches in effect.